Time;durP1;ratioP1;P1;durP2;ratioP2;P2;SDS_P1;SDS_P2;PMS_P1;PMS_P2;Temp;Humidity;BMP_temperature;BMP_pressure;BME280_temperature;BME280_humidity;BME280_pressure;Samples;Min_cycle;Max_cycle;Signal;HPM_P1;HPM_P2
2021/12/24 00:01:18;;;;;;;;;;;;;;;0.24;89.59;98734.25;1691587;83;20224;-81
2021/12/24 00:03:45;;;;;;;;;;;;;;;0.22;89.60;98725.77;1692909;83;21031;-82
2021/12/24 00:06:13;;;;;;;;;;;;;;;0.43;88.69;98713.27;1678180;83;20747;-78
2021/12/24 00:08:38;;;;;;;;;;;;;;;0.54;88.14;98709.29;1688986;83;20164;-82
2021/12/24 00:11:05;;;;;;;;;;;;;;;0.60;88.12;98710.56;1696986;83;20169;-83
2021/12/24 00:13:42;;;;;;;;;;;;;;;0.55;88.23;98708.35;1690401;83;20296;-83
2021/12/24 00:16:24;;;;;;;;;;;;;;;0.62;88.13;98706.05;1684957;83;20187;-84
2021/12/24 00:18:57;;;;;;;;;;;;;;;0.62;88.20;98696.96;1682164;83;20533;-85
2021/12/24 00:22:18;;;;;;;;;;;;;;;0.65;88.54;98702.75;1685427;83;20191;-84
2021/12/24 00:37:23;;;;;;;;;;;;;;;0.59;89.72;98660.40;1689643;83;20481;-84
2021/12/24 00:39:56;;;;;;;;;;;;;;;0.69;89.29;98662.55;1685630;83;20177;-83
2021/12/24 00:42:21;;;;;;;;;;;;;;;0.64;89.90;98659.52;1694841;83;20136;-83
2021/12/24 00:44:46;;;;;;;;;;;;;;;0.70;89.67;98666.80;1692547;83;20165;-84
2021/12/24 00:47:12;;;;;;;;;;;;;;;0.63;89.94;98663.06;1649758;83;20162;-83
2021/12/24 00:49:39;;;;;;;;;;;;;;;0.67;89.83;98664.46;1686460;83;20148;-84
2021/12/24 00:52:53;;;;;;;;;;;;;;;0.73;89.75;98655.80;1688062;83;20196;-84
2021/12/24 00:57:23;;;;;;;;;;;;;;;0.77;89.06;98640.30;1681990;83;20514;-84
2021/12/24 00:59:51;;;;;;;;;;;;;;;0.76;89.08;98630.84;1664869;83;20236;-83
2021/12/24 01:02:18;;;;;;;;;;;;;;;0.75;89.22;98620.13;1692823;83;20168;-84
2021/12/24 01:04:46;;;;;;;;;;;;;;;0.83;88.81;98617.69;1692415;83;20217;-82
2021/12/24 01:07:12;;;;;;;;;;;;;;;0.79;89.22;98605.91;1688593;83;21059;-85
2021/12/24 01:09:39;;;;;;;;;;;;;;;0.82;89.08;98608.23;1688045;83;20147;-82
2021/12/24 01:12:06;;;;;;;;;;;;;;;0.86;88.99;98603.94;1683281;83;20146;-83
2021/12/24 01:14:34;;;;;;;;;;;;;;;0.81;89.23;98594.89;1692553;83;20547;-83
2021/12/24 01:17:16;;;;;;;;;;;;;;;0.86;89.23;98588.84;1695902;83;20236;-81
2021/12/24 01:19:38;;;;;;;;;;;;;;;0.94;88.90;98577.30;1680478;83;20093;-81
2021/12/24 01:24:50;;;;;;;;;;;;;;;0.93;88.57;98562.64;1690100;83;20173;-82
2021/12/24 01:27:22;;;;;;;;;;;;;;;0.96;88.78;98558.48;1698904;83;20156;-82
2021/12/24 01:29:50;;;;;;;;;;;;;;;0.98;88.66;98563.09;1696513;83;20129;-81
2021/12/24 01:42:50;;;;;;;;;;;;;;;1.03;88.55;98532.30;1692878;83;20180;-82
2021/12/24 01:45:30;;;;;;;;;;;;;;;1.02;88.60;98540.23;1691098;83;21142;-79
2021/12/24 01:48:02;;;;;;;;;;;;;;;0.99;88.83;98544.41;1677269;83;20214;-83
2021/12/24 01:50:32;;;;;;;;;;;;;;;1.01;88.57;98512.59;1691749;82;20229;-81
2021/12/24 01:52:59;;;;;;;;;;;;;;;1.00;88.62;98510.97;1699767;83;20144;-82
2021/12/24 01:55:26;;;;;;;;;;;;;;;0.86;89.14;98513.48;1696705;82;20482;-81
2021/12/24 01:57:53;;;;;;;;;;;;;;;0.99;89.19;98512.72;1679563;83;21108;-83
2021/12/24 02:00:31;;;;;;;;;;;;;;;1.06;88.86;98503.44;1694686;83;20183;-82
2021/12/24 02:02:56;;;;;;;;;;;;;;;1.05;88.88;98492.69;1697974;83;20557;-82
2021/12/24 02:05:23;;;;;;;;;;;;;;;1.05;88.87;98489.28;1686666;83;20168;-79
2021/12/24 02:07:49;;;;;;;;;;;;;;;0.92;89.06;98479.16;1692555;83;20169;-81
2021/12/24 02:10:18;;;;;;;;;;;;;;;1.00;88.99;98467.59;1693696;83;21086;-81
2021/12/24 02:12:47;;;;;;;;;;;;;;;0.90;89.33;98460.26;1704110;83;20117;-81
2021/12/24 02:15:25;;;;;;;;;;;;;;;0.89;89.43;98448.25;1702032;83;20204;-81
2021/12/24 02:18:03;;;;;;;;;;;;;;;0.83;89.55;98447.48;1683188;83;20156;-80
2021/12/24 02:28:38;;;;;;;;;;;;;;;0.81;89.85;98448.92;1689572;83;20220;-81
2021/12/24 02:31:00;;;;;;;;;;;;;;;0.74;90.09;98441.80;1691433;83;20529;-79
2021/12/24 02:33:25;;;;;;;;;;;;;;;0.78;90.11;98447.89;1699639;82;20207;-81
2021/12/24 02:35:53;;;;;;;;;;;;;;;0.75;90.08;98440.86;1681035;83;21160;-80
2021/12/24 02:38:19;;;;;;;;;;;;;;;0.82;90.08;98436.74;1689083;83;20138;-79
2021/12/24 02:40:45;;;;;;;;;;;;;;;0.86;90.03;98438.94;1685665;83;20172;-79
2021/12/24 02:43:15;;;;;;;;;;;;;;;0.87;90.02;98427.59;1657025;83;20226;-79
2021/12/24 02:45:41;;;;;;;;;;;;;;;0.84;90.18;98425.72;1694517;83;20151;-79
2021/12/24 02:56:04;;;;;;;;;;;;;;;0.93;90.50;98409.80;1689665;83;20238;-80
2021/12/24 02:58:38;;;;;;;;;;;;;;;0.93;90.38;98413.21;1703883;83;20212;-80
2021/12/24 03:01:06;;;;;;;;;;;;;;;0.73;90.35;98401.19;1692552;83;21252;-82
2021/12/24 03:03:32;;;;;;;;;;;;;;;0.70;90.52;98387.52;1699152;83;20199;-81
2021/12/24 03:06:00;;;;;;;;;;;;;;;0.84;90.38;98382.84;1696545;83;20164;-81
2021/12/24 03:08:25;;;;;;;;;;;;;;;0.71;90.75;98373.59;1693489;83;20207;-78
2021/12/24 03:10:54;;;;;;;;;;;;;;;0.70;90.80;98365.44;1664792;84;20160;-82
2021/12/24 03:13:21;;;;;;;;;;;;;;;0.75;90.96;98368.92;1692527;83;20164;-80
2021/12/24 03:15:50;;;;;;;;;;;;;;;0.79;90.76;98358.58;1686166;83;20170;-78
2021/12/24 03:18:22;;;;;;;;;;;;;;;0.65;91.05;98361.60;1692166;83;20141;-80
2021/12/24 03:20:45;;;;;;;;;;;;;;;0.64;91.51;98358.20;1690511;83;20470;-80
2021/12/24 03:23:32;;;;;;;;;;;;;;;0.66;91.32;98339.39;1703592;83;20152;-80
2021/12/24 03:25:38;;;;;;;;;;;;;;;0.66;91.51;98360.17;1692462;83;20180;-83
2021/12/24 03:28:04;;;;;;;;;;;;;;;0.62;91.67;98353.63;1692882;83;20153;-82
2021/12/24 03:30:31;;;;;;;;;;;;;;;0.70;91.53;98338.16;1693183;84;20215;-82
2021/12/24 03:32:57;;;;;;;;;;;;;;;0.77;91.27;98329.33;1692724;84;20216;-81
2021/12/24 03:35:24;;;;;;;;;;;;;;;0.82;91.18;98322.42;1692741;83;20145;-80
2021/12/24 03:37:50;;;;;;;;;;;;;;;0.81;91.11;98337.66;1691848;83;22071;-82
2021/12/24 03:40:17;;;;;;;;;;;;;;;0.77;91.13;98329.81;1691299;83;20141;-82
2021/12/24 03:42:46;;;;;;;;;;;;;;;0.76;91.49;98335.96;1692758;83;20200;-82
2021/12/24 03:45:40;;;;;;;;;;;;;;;0.73;91.53;98318.05;1693855;82;20131;-81
2021/12/24 03:48:02;;;;;;;;;;;;;;;0.72;91.71;98306.85;1709780;82;20537;-79
2021/12/24 03:50:38;;;;;;;;;;;;;;;0.61;92.13;98306.52;1713172;82;20312;-81
2021/12/24 03:55:28;;;;;;;;;;;;;;;0.75;91.87;98310.47;1704942;82;20106;-83
2021/12/24 03:57:54;;;;;;;;;;;;;;;0.68;91.81;98311.52;1705835;82;20126;-80
2021/12/24 04:00:25;;;;;;;;;;;;;;;0.66;92.07;98308.70;1697043;82;20193;-83
2021/12/24 04:02:53;;;;;;;;;;;;;;;0.69;92.08;98302.75;1702854;82;22023;-84
2021/12/24 04:05:19;;;;;;;;;;;;;;;0.73;91.95;98302.47;1706640;82;20193;-82
2021/12/24 04:07:46;;;;;;;;;;;;;;;0.74;91.85;98296.32;1704751;82;20140;-82
2021/12/24 04:10:32;;;;;;;;;;;;;;;0.83;91.70;98302.79;1704885;82;20193;-82
2021/12/24 04:12:50;;;;;;;;;;;;;;;0.86;91.57;98299.11;1671794;84;20163;-82
2021/12/24 04:15:16;;;;;;;;;;;;;;;0.68;91.99;98292.03;1680044;84;21224;-82
2021/12/24 04:17:46;;;;;;;;;;;;;;;0.69;92.14;98281.96;1700940;83;20130;-81
2021/12/24 04:25:41;;;;;;;;;;;;;;;0.92;91.67;98253.53;1695642;83;20164;-83
2021/12/24 04:28:08;;;;;;;;;;;;;;;0.91;91.49;98256.61;1686667;83;21176;-81
2021/12/24 04:30:41;;;;;;;;;;;;;;;0.88;91.71;98251.21;1705562;83;20188;-81
2021/12/24 04:33:16;;;;;;;;;;;;;;;0.81;92.26;98249.31;1693731;83;20180;-81
2021/12/24 04:35:40;;;;;;;;;;;;;;;0.85;92.24;98249.39;1691226;83;20208;-81
2021/12/24 04:51:48;;;;;;;;;;;;;;;0.79;93.07;98244.75;1693972;83;20488;-83
2021/12/24 05:05:09;;;;;;;;;;;;;;;0.94;92.68;98238.14;1701725;83;20164;-80
2021/12/24 05:10:12;;;;;;;;;;;;;;;0.93;93.01;98245.59;1703229;82;20109;-81
2021/12/24 05:12:37;;;;;;;;;;;;;;;0.99;92.97;98237.23;1716023;82;20231;-83
2021/12/24 05:15:08;;;;;;;;;;;;;;;1.07;92.60;98236.05;1718311;82;20618;-82
2021/12/24 05:17:51;;;;;;;;;;;;;;;1.06;92.66;98233.59;1714280;82;20171;-82
2021/12/24 05:22:47;;;;;;;;;;;;;;;0.93;93.62;98223.50;1714554;82;20129;-82
2021/12/24 05:25:13;;;;;;;;;;;;;;;0.89;94.07;98220.87;1704710;82;20517;-82
2021/12/24 05:27:40;;;;;;;;;;;;;;;1.00;93.46;98216.78;1706014;82;20163;-82
2021/12/24 05:30:13;;;;;;;;;;;;;;;1.03;93.45;98224.30;1718072;82;20147;-82
2021/12/24 05:32:38;;;;;;;;;;;;;;;1.04;93.26;98232.91;1712267;82;20149;-83
2021/12/24 05:35:07;;;;;;;;;;;;;;;1.05;93.22;98231.95;1710593;82;20239;-83
2021/12/24 05:37:32;;;;;;;;;;;;;;;1.08;93.12;98229.88;1706765;82;20137;-84
2021/12/24 05:40:02;;;;;;;;;;;;;;;1.13;93.09;98223.44;1715059;82;20168;-83
2021/12/24 05:42:31;;;;;;;;;;;;;;;1.17;93.04;98225.61;1701023;82;20173;-82
2021/12/24 05:45:02;;;;;;;;;;;;;;;1.03;93.61;98223.00;1709147;82;20236;-82
2021/12/24 05:47:24;;;;;;;;;;;;;;;1.12;93.90;98221.79;1707418;82;20177;-82
2021/12/24 05:49:49;;;;;;;;;;;;;;;1.18;93.42;98219.45;1700000;82;20311;-83
2021/12/24 05:52:15;;;;;;;;;;;;;;;1.25;93.26;98217.09;1703715;82;20462;-83
2021/12/24 05:54:40;;;;;;;;;;;;;;;0.95;94.10;98215.10;1706407;82;20156;-82
2021/12/24 05:57:08;;;;;;;;;;;;;;;1.12;93.81;98210.09;1715737;82;21036;-83
2021/12/24 05:59:36;;;;;;;;;;;;;;;1.15;93.43;98202.00;1699970;82;20613;-82
2021/12/24 06:02:04;;;;;;;;;;;;;;;1.20;93.30;98203.22;1698593;82;20133;-83
2021/12/24 06:04:31;;;;;;;;;;;;;;;1.06;94.03;98205.81;1694267;82;20182;-83
2021/12/24 06:06:58;;;;;;;;;;;;;;;1.13;93.99;98213.03;1717200;82;20189;-82
2021/12/24 06:09:25;;;;;;;;;;;;;;;1.16;94.29;98207.55;1709958;82;21388;-82
2021/12/24 06:11:51;;;;;;;;;;;;;;;1.18;94.42;98201.26;1711120;82;20125;-82
2021/12/24 06:14:17;;;;;;;;;;;;;;;1.29;94.26;98195.05;1697828;82;20190;-81
2021/12/24 06:16:50;;;;;;;;;;;;;;;1.35;93.68;98203.56;1696210;82;20154;-82
2021/12/24 06:19:15;;;;;;;;;;;;;;;1.34;93.93;98200.62;1701649;82;20098;-82
2021/12/24 06:21:44;;;;;;;;;;;;;;;1.32;94.05;98199.12;1717205;82;21092;-83
2021/12/24 06:24:12;;;;;;;;;;;;;;;1.45;93.85;98196.19;1704835;82;20120;-83
2021/12/24 06:26:39;;;;;;;;;;;;;;;1.48;93.47;98198.50;1714556;82;20295;-83
2021/12/24 06:29:05;;;;;;;;;;;;;;;1.42;93.73;98195.50;1704367;82;20143;-82
2021/12/24 06:31:31;;;;;;;;;;;;;;;1.55;93.57;98191.72;1707062;82;20834;-82
2021/12/24 06:33:59;;;;;;;;;;;;;;;1.60;93.19;98200.73;1704128;82;21365;-83
2021/12/24 06:36:26;;;;;;;;;;;;;;;1.48;93.61;98201.09;1708831;82;20125;-82
2021/12/24 06:38:52;;;;;;;;;;;;;;;1.53;93.20;98204.88;1670547;82;20185;-82
2021/12/24 06:41:20;;;;;;;;;;;;;;;1.57;93.26;98202.79;1709733;82;20177;-82
2021/12/24 06:43:48;;;;;;;;;;;;;;;1.55;93.12;98204.73;1710008;82;20192;-82
2021/12/24 06:46:13;;;;;;;;;;;;;;;1.53;93.44;98196.27;1707457;82;20228;-82
2021/12/24 06:48:41;;;;;;;;;;;;;;;1.54;93.55;98197.88;1708290;82;20857;-82
2021/12/24 06:51:10;;;;;;;;;;;;;;;1.59;93.37;98200.88;1721448;82;20183;-84
2021/12/24 06:53:36;;;;;;;;;;;;;;;1.54;93.47;98200.48;1708228;82;20153;-82
2021/12/24 06:56:04;;;;;;;;;;;;;;;1.46;94.19;98195.20;1711297;82;20510;-82
2021/12/24 06:58:29;;;;;;;;;;;;;;;1.53;94.01;98194.97;1705013;82;21290;-81
2021/12/24 07:00:55;;;;;;;;;;;;;;;1.56;94.03;98182.97;1722107;82;20962;-81
2021/12/24 07:03:22;;;;;;;;;;;;;;;1.63;94.02;98176.19;1715135;82;20133;-83
2021/12/24 07:05:49;;;;;;;;;;;;;;;1.67;93.74;98178.03;1709949;82;20185;-82
2021/12/24 07:08:16;;;;;;;;;;;;;;;1.71;93.60;98171.08;1708282;82;20192;-82
2021/12/24 07:10:41;;;;;;;;;;;;;;;1.52;94.18;98175.11;1692492;82;21123;-83
2021/12/24 07:13:09;;;;;;;;;;;;;;;1.62;94.23;98177.17;1686520;82;20130;-82
2021/12/24 07:15:39;;;;;;;;;;;;;;;1.65;94.28;98178.18;1690066;82;20166;-82
2021/12/24 07:18:06;;;;;;;;;;;;;;;1.65;94.18;98181.24;1707272;82;20228;-82
2021/12/24 07:20:31;;;;;;;;;;;;;;;1.59;94.49;98177.47;1705385;82;20225;-84
2021/12/24 07:22:57;;;;;;;;;;;;;;;1.65;94.69;98174.28;1715418;82;21215;-82
2021/12/24 07:25:23;;;;;;;;;;;;;;;1.69;94.70;98177.39;1705001;82;20260;-83
2021/12/24 07:27:56;;;;;;;;;;;;;;;1.72;94.64;98171.40;1715201;82;20143;-79
2021/12/24 07:30:22;;;;;;;;;;;;;;;1.74;95.97;98166.88;1706490;82;20586;-82
2021/12/24 07:32:47;;;;;;;;;;;;;;;1.70;95.22;98168.14;1713389;82;20129;-81
2021/12/24 07:35:14;;;;;;;;;;;;;;;1.82;95.88;98166.60;1711048;82;21146;-84
2021/12/24 07:37:43;;;;;;;;;;;;;;;1.90;94.84;98165.39;1709254;82;20141;-83
2021/12/24 07:40:15;;;;;;;;;;;;;;;1.79;94.96;98180.75;1715793;82;20228;-82
2021/12/24 07:42:45;;;;;;;;;;;;;;;1.95;94.96;98178.27;1712219;82;20218;-83
2021/12/24 07:45:14;;;;;;;;;;;;;;;1.96;94.71;98181.71;1716159;82;20216;-85
2021/12/24 07:47:42;;;;;;;;;;;;;;;1.94;94.46;98181.02;1709629;82;21134;-83
2021/12/24 07:51:57;;;;;;;;;;;;;;;1.97;94.42;98182.03;1708181;82;20479;-84
2021/12/24 07:52:44;;;;;;;;;;;;;;;2.05;94.32;98188.63;1699435;82;20130;-85
2021/12/24 07:55:10;;;;;;;;;;;;;;;1.96;94.48;98183.02;1696366;83;20212;-90
2021/12/24 07:57:38;;;;;;;;;;;;;;;1.92;94.75;98181.67;1680613;83;20199;-85
2021/12/24 08:00:05;;;;;;;;;;;;;;;1.90;95.08;98179.70;1688376;83;21090;-87
2021/12/24 08:02:34;;;;;;;;;;;;;;;1.92;95.17;98182.97;1687593;83;20200;-77
2021/12/24 08:04:59;;;;;;;;;;;;;;;1.77;95.60;98183.50;1694229;83;20518;-85
2021/12/24 08:07:27;;;;;;;;;;;;;;;1.75;96.40;98188.02;1695887;83;20510;-87
2021/12/24 08:09:54;;;;;;;;;;;;;;;1.68;96.87;98189.59;1691852;83;20287;-81
2021/12/24 08:12:23;;;;;;;;;;;;;;;1.59;97.58;98195.67;1692698;83;21198;-81
2021/12/24 08:14:51;;;;;;;;;;;;;;;1.53;98.27;98193.66;1692837;83;20195;-82
2021/12/24 08:17:16;;;;;;;;;;;;;;;1.56;98.64;98196.78;1685030;83;20446;-82
2021/12/24 08:19:44;;;;;;;;;;;;;;;1.61;98.86;98195.84;1680353;83;20120;-86
2021/12/24 08:22:10;;;;;;;;;;;;;;;1.34;99.92;98198.02;1681825;83;20152;-84
2021/12/24 08:24:37;;;;;;;;;;;;;;;1.28;100.00;98201.20;1689591;83;21073;-82
2021/12/24 08:27:03;;;;;;;;;;;;;;;1.14;100.00;98215.98;1693741;83;20184;-80
2021/12/24 08:29:28;;;;;;;;;;;;;;;1.23;100.00;98203.42;1695772;83;20156;-82
2021/12/24 08:31:56;;;;;;;;;;;;;;;1.31;100.00;98195.70;1696370;83;20121;-81
2021/12/24 08:34:21;;;;;;;;;;;;;;;1.22;100.00;98193.98;1681704;83;20210;-80
2021/12/24 08:36:47;;;;;;;;;;;;;;;1.30;100.00;98191.46;1691111;83;21152;-81
2021/12/24 08:39:13;;;;;;;;;;;;;;;1.20;100.00;98182.91;1654627;83;20604;-81
2021/12/24 08:41:39;;;;;;;;;;;;;;;1.21;100.00;98179.33;1686343;83;20198;-80
2021/12/24 08:44:04;;;;;;;;;;;;;;;1.15;100.00;98185.11;1670676;83;21217;-81
2021/12/24 08:46:30;;;;;;;;;;;;;;;1.16;100.00;98179.77;1680246;83;20152;-80
2021/12/24 08:48:56;;;;;;;;;;;;;;;1.19;100.00;98174.77;1703916;83;21065;-80
2021/12/24 08:51:23;;;;;;;;;;;;;;;1.24;100.00;98169.48;1697454;83;20246;-83
2021/12/24 08:53:49;;;;;;;;;;;;;;;1.30;100.00;98169.85;1705806;83;20140;-79
2021/12/24 08:56:14;;;;;;;;;;;;;;;1.27;100.00;98170.14;1709209;83;20170;-82
2021/12/24 08:58:40;;;;;;;;;;;;;;;1.28;100.00;98166.59;1702422;83;20733;-79
2021/12/24 09:01:07;;;;;;;;;;;;;;;1.23;100.00;98164.42;1661461;83;21563;-77
2021/12/24 09:03:33;;;;;;;;;;;;;;;1.28;100.00;98160.89;1696759;83;20213;-78
2021/12/24 09:06:00;;;;;;;;;;;;;;;1.33;100.00;98144.36;1690589;83;20286;-79
2021/12/24 09:08:25;;;;;;;;;;;;;;;1.48;100.00;98151.68;1704355;83;20185;-80
2021/12/24 09:10:51;;;;;;;;;;;;;;;1.43;100.00;98150.82;1704587;83;20231;-80
2021/12/24 09:13:19;;;;;;;;;;;;;;;1.44;100.00;98142.03;1707272;83;21016;-79
2021/12/24 09:15:44;;;;;;;;;;;;;;;1.52;100.00;98141.30;1702464;83;20121;-80
2021/12/24 09:18:12;;;;;;;;;;;;;;;1.63;100.00;98131.96;1669813;83;20141;-85
2021/12/24 09:20:42;;;;;;;;;;;;;;;1.45;100.00;98139.78;1689282;83;20208;-75
2021/12/24 09:23:07;;;;;;;;;;;;;;;1.51;100.00;98137.89;1699237;83;21043;-75
2021/12/24 09:25:32;;;;;;;;;;;;;;;1.42;100.00;98136.98;1694026;83;21093;-74
2021/12/24 09:27:58;;;;;;;;;;;;;;;1.50;100.00;98125.03;1695437;83;20896;-74
2021/12/24 09:30:25;;;;;;;;;;;;;;;1.42;100.00;98135.68;1698251;83;20605;-76
2021/12/24 09:32:54;;;;;;;;;;;;;;;1.41;100.00;98130.16;1707404;83;20181;-75
2021/12/24 09:35:20;;;;;;;;;;;;;;;1.49;100.00;98136.39;1699488;83;20210;-75
2021/12/24 09:37:47;;;;;;;;;;;;;;;1.56;100.00;98137.45;1697793;83;22001;-73
2021/12/24 09:40:16;;;;;;;;;;;;;;;1.53;100.00;98128.64;1694174;83;20347;-75
2021/12/24 09:42:42;;;;;;;;;;;;;;;1.64;100.00;98131.00;1688501;83;20211;-75
2021/12/24 09:45:08;;;;;;;;;;;;;;;1.56;100.00;98130.94;1692261;83;20218;-74
2021/12/24 09:47:36;;;;;;;;;;;;;;;1.47;100.00;98122.73;1663335;83;20169;-78
2021/12/24 09:50:02;;;;;;;;;;;;;;;1.50;100.00;98116.73;1654506;83;21294;-77
2021/12/24 09:52:29;;;;;;;;;;;;;;;1.62;100.00;98116.03;1687240;83;20118;-75
2021/12/24 09:54:56;;;;;;;;;;;;;;;1.66;100.00;98112.15;1682053;83;20223;-75
2021/12/24 09:57:22;;;;;;;;;;;;;;;1.77;100.00;98108.04;1682471;83;20432;-74
2021/12/24 09:59:53;;;;;;;;;;;;;;;1.78;100.00;98110.14;1692664;83;20160;-75
2021/12/24 10:02:27;;;;;;;;;;;;;;;1.59;100.00;98120.23;1681507;83;20131;-78
2021/12/24 10:04:49;;;;;;;;;;;;;;;1.68;100.00;98105.03;1680211;83;20217;-79
2021/12/24 10:07:17;;;;;;;;;;;;;;;1.56;100.00;98114.03;1681471;83;20527;-76
2021/12/24 10:09:44;;;;;;;;;;;;;;;1.45;100.00;98116.38;1683444;83;20213;-75
2021/12/24 10:12:17;;;;;;;;;;;;;;;1.36;100.00;98114.16;1681914;83;20169;-75
2021/12/24 10:14:57;;;;;;;;;;;;;;;1.47;100.00;98104.03;1687367;83;20197;-78
2021/12/24 10:17:31;;;;;;;;;;;;;;;1.53;100.00;98102.63;1689918;83;20223;-77
2021/12/24 10:20:01;;;;;;;;;;;;;;;1.64;100.00;98107.59;1686388;83;20228;-79
2021/12/24 10:22:34;;;;;;;;;;;;;;;1.64;100.00;98104.98;1684437;83;20596;-75
2021/12/24 10:25:05;;;;;;;;;;;;;;;1.72;100.00;98105.05;1685480;83;20208;-76
2021/12/24 10:27:33;;;;;;;;;;;;;;;1.78;100.00;98104.45;1666309;83;40294;-75
2021/12/24 10:30:00;;;;;;;;;;;;;;;1.77;100.00;98086.38;1685709;83;20164;-76
2021/12/24 10:32:26;;;;;;;;;;;;;;;1.79;100.00;98082.67;1685950;83;20226;-77
2021/12/24 10:34:52;;;;;;;;;;;;;;;1.68;100.00;98072.52;1685053;83;20221;-75
2021/12/24 10:37:26;;;;;;;;;;;;;;;1.62;100.00;98073.11;1684220;83;20425;-76
2021/12/24 10:39:54;;;;;;;;;;;;;;;1.67;100.00;98072.17;1692679;83;21091;-75
2021/12/24 10:42:23;;;;;;;;;;;;;;;1.60;100.00;98091.47;1689057;83;20137;-76
2021/12/24 10:44:50;;;;;;;;;;;;;;;1.55;100.00;98082.47;1684755;83;20165;-75
2021/12/24 10:47:29;;;;;;;;;;;;;;;1.62;100.00;98080.92;1684779;83;20161;-78
2021/12/24 10:55:31;;;;;;;;;;;;;;;1.69;100.00;98053.31;1696215;83;20168;-78
2021/12/24 10:57:59;;;;;;;;;;;;;;;1.76;100.00;98056.95;1683922;83;20190;-77
2021/12/24 11:00:38;;;;;;;;;;;;;;;1.75;100.00;98042.30;1684099;83;20120;-75
2021/12/24 11:03:06;;;;;;;;;;;;;;;1.73;100.00;98031.23;1672091;83;20201;-76
2021/12/24 11:05:43;;;;;;;;;;;;;;;1.79;100.00;98037.13;1682030;83;21179;-75
2021/12/24 11:08:15;;;;;;;;;;;;;;;1.84;100.00;98031.97;1681773;83;20475;-76
2021/12/24 11:10:54;;;;;;;;;;;;;;;1.91;100.00;98023.86;1676570;83;20211;-77
2021/12/24 11:13:29;;;;;;;;;;;;;;;1.82;100.00;98015.66;1685390;83;20177;-77
2021/12/24 11:15:53;;;;;;;;;;;;;;;2.00;100.00;98014.33;1681943;83;21255;-77
2021/12/24 11:18:31;;;;;;;;;;;;;;;1.95;100.00;98010.88;1705655;83;21174;-79
2021/12/24 11:20:59;;;;;;;;;;;;;;;1.95;100.00;98005.67;1693854;83;20196;-76
2021/12/24 11:23:25;;;;;;;;;;;;;;;1.91;100.00;98027.30;1686534;83;20212;-79
2021/12/24 11:25:53;;;;;;;;;;;;;;;1.95;100.00;98026.50;1684023;83;20236;-79
2021/12/24 11:28:19;;;;;;;;;;;;;;;2.07;100.00;98025.77;1681776;83;20180;-75
2021/12/24 11:30:49;;;;;;;;;;;;;;;2.10;100.00;98026.75;1679780;83;21206;-76
2021/12/24 11:33:16;;;;;;;;;;;;;;;2.07;100.00;98026.56;1684512;83;20153;-76
2021/12/24 11:35:43;;;;;;;;;;;;;;;2.19;100.00;98021.08;1689551;83;20214;-75
2021/12/24 11:38:11;;;;;;;;;;;;;;;2.20;100.00;98034.45;1688889;83;20141;-78
2021/12/24 11:40:36;;;;;;;;;;;;;;;2.14;100.00;98022.39;1710490;82;20518;-77
2021/12/24 11:43:05;;;;;;;;;;;;;;;2.06;100.00;98004.09;1719512;82;21081;-76
2021/12/24 11:45:32;;;;;;;;;;;;;;;1.99;100.00;98001.80;1717748;82;20106;-78
2021/12/24 11:47:58;;;;;;;;;;;;;;;2.24;100.00;98007.13;1718607;82;20125;-76
2021/12/24 11:50:24;;;;;;;;;;;;;;;2.10;100.00;98002.83;1708547;82;20172;-78
2021/12/24 11:52:51;;;;;;;;;;;;;;;2.01;100.00;98016.77;1706937;82;20199;-77
2021/12/24 11:55:17;;;;;;;;;;;;;;;1.97;100.00;98006.33;1696125;82;20569;-77
2021/12/24 11:57:50;;;;;;;;;;;;;;;1.86;100.00;98011.80;1710078;82;20191;-77
2021/12/24 12:00:18;;;;;;;;;;;;;;;1.87;100.00;98009.54;1709226;82;20190;-77
2021/12/24 12:02:47;;;;;;;;;;;;;;;1.92;100.00;97995.57;1707586;82;20191;-78
2021/12/24 12:05:16;;;;;;;;;;;;;;;2.05;100.00;98000.34;1703885;82;20629;-78
2021/12/24 12:07:42;;;;;;;;;;;;;;;2.12;100.00;97999.57;1675007;84;21239;-82
2021/12/24 12:10:08;;;;;;;;;;;;;;;2.11;100.00;97990.15;1694285;84;20775;-77
2021/12/24 12:12:34;;;;;;;;;;;;;;;2.18;100.00;98003.35;1701939;83;20388;-80
2021/12/24 12:15:23;;;;;;;;;;;;;;;2.07;100.00;98000.53;1692607;83;20227;-79
2021/12/24 12:17:51;;;;;;;;;;;;;;;2.13;100.00;97999.91;1691506;83;20241;-78
2021/12/24 12:20:39;;;;;;;;;;;;;;;2.03;100.00;98005.70;1692817;83;21077;-81
2021/12/24 12:23:01;;;;;;;;;;;;;;;2.07;100.00;98007.05;1690045;83;20156;-80
2021/12/24 12:25:31;;;;;;;;;;;;;;;2.08;100.00;98018.27;1684879;83;20186;-79
2021/12/24 12:27:59;;;;;;;;;;;;;;;2.00;100.00;98007.81;1686608;83;20188;-77
2021/12/24 12:30:28;;;;;;;;;;;;;;;2.01;100.00;98006.36;1684593;83;20204;-79
2021/12/24 12:33:14;;;;;;;;;;;;;;;2.05;100.00;98012.06;1684879;83;21217;-79
2021/12/24 12:35:54;;;;;;;;;;;;;;;2.00;100.00;98011.22;1698451;83;20208;-78
2021/12/24 12:38:33;;;;;;;;;;;;;;;1.93;100.00;98004.53;1692206;83;20239;-77
2021/12/24 12:41:33;;;;;;;;;;;;;;;1.97;100.00;98006.33;1692236;83;20178;-79
2021/12/24 12:43:59;;;;;;;;;;;;;;;1.94;100.00;98002.73;1688609;83;21137;-78
2021/12/24 12:46:37;;;;;;;;;;;;;;;2.07;100.00;97997.13;1690163;83;21121;-79
2021/12/24 12:49:04;;;;;;;;;;;;;;;2.00;100.00;98001.30;1665793;83;20183;-79
2021/12/24 12:51:50;;;;;;;;;;;;;;;1.97;100.00;97992.01;1660249;86;20186;-78
2021/12/24 12:54:38;;;;;;;;;;;;;;;2.04;100.00;97995.64;1660221;84;20198;-80
2021/12/24 12:57:10;;;;;;;;;;;;;;;1.97;100.00;97995.91;1661579;86;20523;-78
2021/12/24 12:59:36;;;;;;;;;;;;;;;1.86;100.00;98001.39;1655619;85;21175;-77
2021/12/24 13:02:02;;;;;;;;;;;;;;;1.84;100.00;98000.73;1661735;86;20158;-78
2021/12/24 13:04:28;;;;;;;;;;;;;;;1.95;100.00;97987.45;1655605;86;20183;-81
2021/12/24 13:06:54;;;;;;;;;;;;;;;2.04;100.00;97983.92;1662621;85;20220;-79
2021/12/24 13:09:22;;;;;;;;;;;;;;;2.17;100.00;97987.89;1658370;86;20207;-79
2021/12/24 13:11:51;;;;;;;;;;;;;;;2.11;100.00;97984.95;1656568;85;22411;-78
2021/12/24 13:14:17;;;;;;;;;;;;;;;2.06;100.00;97984.58;1661123;86;20153;-79
2021/12/24 13:16:48;;;;;;;;;;;;;;;2.21;100.00;97984.81;1654423;86;20166;-81
2021/12/24 13:24:58;;;;;;;;;;;;;;;2.09;100.00;97990.77;1652734;86;20594;-83
2021/12/24 13:27:27;;;;;;;;;;;;;;;2.10;100.00;97989.81;1656987;86;20182;-80
2021/12/24 13:30:06;;;;;;;;;;;;;;;2.14;100.00;97998.12;1664615;86;20138;-81
2021/12/24 13:32:33;;;;;;;;;;;;;;;1.97;100.00;97995.91;1657288;85;20308;-81
2021/12/24 13:34:58;;;;;;;;;;;;;;;2.12;100.00;97995.67;1620035;86;20166;-82
2021/12/24 13:37:28;;;;;;;;;;;;;;;1.95;100.00;97991.36;1657701;86;21176;-81
2021/12/24 13:39:54;;;;;;;;;;;;;;;1.98;100.00;97984.05;1654796;85;20138;-81
2021/12/24 13:42:19;;;;;;;;;;;;;;;1.92;100.00;97983.36;1655731;86;20803;-80
2021/12/24 13:44:47;;;;;;;;;;;;;;;1.99;100.00;97975.77;1657717;85;20118;-82
2021/12/24 13:47:22;;;;;;;;;;;;;;;1.94;100.00;97974.09;1659027;86;20516;-81
2021/12/24 13:50:26;;;;;;;;;;;;;;;2.09;100.00;97962.13;1671886;84;20153;-85
2021/12/24 13:55:27;;;;;;;;;;;;;;;1.92;100.00;97954.73;1680152;84;20165;-81
2021/12/24 13:57:55;;;;;;;;;;;;;;;2.04;100.00;97956.59;1681352;84;20160;-81
2021/12/24 14:00:21;;;;;;;;;;;;;;;2.07;100.00;97965.39;1677904;84;20168;-82
2021/12/24 14:02:51;;;;;;;;;;;;;;;2.03;100.00;97960.16;1679430;84;21099;-82
2021/12/24 14:05:18;;;;;;;;;;;;;;;2.08;100.00;97965.73;1677023;84;20367;-80
2021/12/24 14:07:46;;;;;;;;;;;;;;;2.09;100.00;97951.72;1676012;84;20199;-83
2021/12/24 14:10:22;;;;;;;;;;;;;;;2.14;100.00;97935.63;1676721;83;20187;-81
2021/12/24 14:12:47;;;;;;;;;;;;;;;2.00;100.00;97929.72;1679183;84;20224;-84
2021/12/24 14:15:15;;;;;;;;;;;;;;;2.05;100.00;97934.80;1680939;84;21134;-83
2021/12/24 14:18:18;;;;;;;;;;;;;;;2.10;100.00;97940.34;1677873;84;20124;-82
2021/12/24 14:20:27;;;;;;;;;;;;;;;2.07;100.00;97928.14;1669677;84;20258;-81
2021/12/24 14:22:51;;;;;;;;;;;;;;;1.88;100.00;97938.28;1674391;84;20156;-82
2021/12/24 14:25:17;;;;;;;;;;;;;;;1.81;100.00;97929.48;1681952;84;20192;-79
2021/12/24 14:27:48;;;;;;;;;;;;;;;1.96;100.00;97930.53;1677447;84;21105;-79
2021/12/24 14:30:19;;;;;;;;;;;;;;;1.76;100.00;97931.25;1672440;84;20176;-79
2021/12/24 14:32:50;;;;;;;;;;;;;;;1.81;100.00;97924.28;1674137;84;20203;-78
2021/12/24 14:35:26;;;;;;;;;;;;;;;1.97;100.00;97915.23;1679153;84;20239;-78
2021/12/24 14:37:58;;;;;;;;;;;;;;;2.02;100.00;97914.75;1677598;84;20164;-78